sensor_id;sensor_type;location;lat;lon;timestamp;P1;durP1;ratioP1;P2;durP2;ratioP2
27303;SDS011;14791;52.392;13.092;2023-07-13T00:01:10;1.00;;;1.00;;
27303;SDS011;14791;52.392;13.092;2023-07-13T00:03:39;1.05;;;1.05;;
27303;SDS011;14791;52.392;13.092;2023-07-13T00:06:08;0.98;;;0.98;;
27303;SDS011;14791;52.392;13.092;2023-07-13T00:08:37;0.95;;;0.95;;
27303;SDS011;14791;52.392;13.092;2023-07-13T00:11:06;1.55;;;1.22;;
27303;SDS011;14791;52.392;13.092;2023-07-13T00:13:37;1.00;;;1.00;;
27303;SDS011;14791;52.392;13.092;2023-07-13T00:16:06;1.12;;;1.12;;
27303;SDS011;14791;52.392;13.092;2023-07-13T00:18:35;1.17;;;1.10;;
27303;SDS011;14791;52.392;13.092;2023-07-13T00:21:04;2.60;;;1.07;;
27303;SDS011;14791;52.392;13.092;2023-07-13T00:23:38;1.00;;;1.00;;
27303;SDS011;14791;52.392;13.092;2023-07-13T00:26:09;1.10;;;1.00;;
27303;SDS011;14791;52.392;13.092;2023-07-13T00:28:39;0.98;;;0.98;;
27303;SDS011;14791;52.392;13.092;2023-07-13T00:31:09;1.05;;;1.05;;
27303;SDS011;14791;52.392;13.092;2023-07-13T00:33:39;0.90;;;0.90;;
27303;SDS011;14791;52.392;13.092;2023-07-13T00:36:09;3.08;;;1.07;;
27303;SDS011;14791;52.392;13.092;2023-07-13T00:38:39;0.88;;;0.88;;
27303;SDS011;14791;52.392;13.092;2023-07-13T00:41:08;1.17;;;1.00;;
27303;SDS011;14791;52.392;13.092;2023-07-13T00:43:37;1.35;;;1.25;;
27303;SDS011;14791;52.392;13.092;2023-07-13T00:46:19;1.12;;;1.12;;
27303;SDS011;14791;52.392;13.092;2023-07-13T00:48:41;0.93;;;0.93;;
27303;SDS011;14791;52.392;13.092;2023-07-13T00:51:16;1.00;;;1.00;;
27303;SDS011;14791;52.392;13.092;2023-07-13T00:53:46;0.75;;;0.75;;
27303;SDS011;14791;52.392;13.092;2023-07-13T00:56:16;1.00;;;1.00;;
27303;SDS011;14791;52.392;13.092;2023-07-13T00:58:45;1.00;;;1.00;;
27303;SDS011;14791;52.392;13.092;2023-07-13T01:01:14;0.90;;;0.90;;
27303;SDS011;14791;52.392;13.092;2023-07-13T01:03:43;1.27;;;1.27;;
27303;SDS011;14791;52.392;13.092;2023-07-13T01:06:13;0.90;;;0.90;;
27303;SDS011;14791;52.392;13.092;2023-07-13T01:08:44;0.95;;;0.95;;
27303;SDS011;14791;52.392;13.092;2023-07-13T01:11:13;2.15;;;1.30;;
27303;SDS011;14791;52.392;13.092;2023-07-13T01:13:49;1.40;;;1.30;;
27303;SDS011;14791;52.392;13.092;2023-07-13T01:16:19;1.10;;;1.10;;
27303;SDS011;14791;52.392;13.092;2023-07-13T01:18:53;1.27;;;1.27;;
27303;SDS011;14791;52.392;13.092;2023-07-13T01:21:25;1.00;;;1.00;;
27303;SDS011;14791;52.392;13.092;2023-07-13T01:23:54;0.98;;;0.98;;
27303;SDS011;14791;52.392;13.092;2023-07-13T01:26:23;1.00;;;1.00;;
27303;SDS011;14791;52.392;13.092;2023-07-13T01:28:53;1.10;;;1.10;;
27303;SDS011;14791;52.392;13.092;2023-07-13T01:31:23;1.50;;;1.22;;
27303;SDS011;14791;52.392;13.092;2023-07-13T01:33:52;0.98;;;0.98;;
27303;SDS011;14791;52.392;13.092;2023-07-13T01:36:21;1.00;;;1.00;;
27303;SDS011;14791;52.392;13.092;2023-07-13T01:38:50;1.10;;;1.10;;
27303;SDS011;14791;52.392;13.092;2023-07-13T01:41:19;0.90;;;0.90;;
27303;SDS011;14791;52.392;13.092;2023-07-13T01:43:48;1.20;;;1.10;;
27303;SDS011;14791;52.392;13.092;2023-07-13T01:46:17;1.10;;;1.10;;
27303;SDS011;14791;52.392;13.092;2023-07-13T01:48:47;1.22;;;1.22;;
27303;SDS011;14791;52.392;13.092;2023-07-13T01:51:16;1.20;;;1.20;;
27303;SDS011;14791;52.392;13.092;2023-07-13T01:53:46;1.02;;;1.02;;
27303;SDS011;14791;52.392;13.092;2023-07-13T01:56:14;1.30;;;1.30;;
27303;SDS011;14791;52.392;13.092;2023-07-13T01:58:44;1.55;;;1.52;;
27303;SDS011;14791;52.392;13.092;2023-07-13T02:01:14;1.50;;;1.50;;
27303;SDS011;14791;52.392;13.092;2023-07-13T02:03:43;1.30;;;1.30;;
27303;SDS011;14791;52.392;13.092;2023-07-13T02:06:12;1.30;;;1.30;;
27303;SDS011;14791;52.392;13.092;2023-07-13T02:08:41;1.27;;;1.20;;
27303;SDS011;14791;52.392;13.092;2023-07-13T02:11:10;1.00;;;1.00;;
27303;SDS011;14791;52.392;13.092;2023-07-13T02:13:39;1.30;;;1.30;;
27303;SDS011;14791;52.392;13.092;2023-07-13T02:16:08;1.10;;;1.10;;
27303;SDS011;14791;52.392;13.092;2023-07-13T02:18:37;1.30;;;1.30;;
27303;SDS011;14791;52.392;13.092;2023-07-13T02:21:07;1.15;;;1.05;;
27303;SDS011;14791;52.392;13.092;2023-07-13T02:23:36;1.12;;;1.12;;
27303;SDS011;14791;52.392;13.092;2023-07-13T02:26:05;1.25;;;1.25;;
27303;SDS011;14791;52.392;13.092;2023-07-13T02:28:33;3.87;;;3.67;;
27303;SDS011;14791;52.392;13.092;2023-07-13T02:31:06;3.08;;;2.87;;
27303;SDS011;14791;52.392;13.092;2023-07-13T02:33:37;1.90;;;1.80;;
27303;SDS011;14791;52.392;13.092;2023-07-13T02:36:06;1.30;;;1.30;;
27303;SDS011;14791;52.392;13.092;2023-07-13T02:38:36;1.17;;;1.17;;
27303;SDS011;14791;52.392;13.092;2023-07-13T02:41:07;1.10;;;1.10;;
27303;SDS011;14791;52.392;13.092;2023-07-13T02:43:39;1.20;;;1.20;;
27303;SDS011;14791;52.392;13.092;2023-07-13T02:46:12;1.37;;;1.37;;
27303;SDS011;14791;52.392;13.092;2023-07-13T02:48:41;1.20;;;1.20;;
27303;SDS011;14791;52.392;13.092;2023-07-13T02:51:10;1.50;;;1.27;;
27303;SDS011;14791;52.392;13.092;2023-07-13T02:53:39;1.40;;;1.40;;
27303;SDS011;14791;52.392;13.092;2023-07-13T02:56:08;1.22;;;1.22;;
27303;SDS011;14791;52.392;13.092;2023-07-13T02:58:37;1.52;;;1.52;;
27303;SDS011;14791;52.392;13.092;2023-07-13T03:01:07;1.50;;;1.50;;
27303;SDS011;14791;52.392;13.092;2023-07-13T03:03:37;1.50;;;1.50;;
27303;SDS011;14791;52.392;13.092;2023-07-13T03:06:07;1.65;;;1.65;;
27303;SDS011;14791;52.392;13.092;2023-07-13T03:08:37;1.55;;;1.50;;
27303;SDS011;14791;52.392;13.092;2023-07-13T03:11:08;1.40;;;1.40;;
27303;SDS011;14791;52.392;13.092;2023-07-13T03:13:40;1.37;;;1.37;;
27303;SDS011;14791;52.392;13.092;2023-07-13T03:16:10;1.50;;;1.50;;
27303;SDS011;14791;52.392;13.092;2023-07-13T03:18:42;1.20;;;1.20;;
27303;SDS011;14791;52.392;13.092;2023-07-13T03:21:12;1.57;;;1.47;;
27303;SDS011;14791;52.392;13.092;2023-07-13T03:23:42;1.27;;;1.27;;
27303;SDS011;14791;52.392;13.092;2023-07-13T03:26:12;1.57;;;1.55;;
27303;SDS011;14791;52.392;13.092;2023-07-13T03:28:43;1.37;;;1.37;;
27303;SDS011;14791;52.392;13.092;2023-07-13T03:31:15;1.47;;;1.40;;
27303;SDS011;14791;52.392;13.092;2023-07-13T03:33:46;2.15;;;2.00;;
27303;SDS011;14791;52.392;13.092;2023-07-13T03:36:22;1.60;;;1.60;;
27303;SDS011;14791;52.392;13.092;2023-07-13T03:38:49;2.77;;;2.60;;
27303;SDS011;14791;52.392;13.092;2023-07-13T03:41:21;3.42;;;3.15;;
27303;SDS011;14791;52.392;13.092;2023-07-13T03:43:52;2.50;;;2.40;;
27303;SDS011;14791;52.392;13.092;2023-07-13T03:46:23;1.87;;;1.82;;
27303;SDS011;14791;52.392;13.092;2023-07-13T03:48:52;2.45;;;2.05;;
27303;SDS011;14791;52.392;13.092;2023-07-13T03:51:22;2.02;;;1.72;;
27303;SDS011;14791;52.392;13.092;2023-07-13T03:53:51;1.85;;;1.77;;
27303;SDS011;14791;52.392;13.092;2023-07-13T03:56:20;1.45;;;1.45;;
27303;SDS011;14791;52.392;13.092;2023-07-13T03:58:49;1.62;;;1.62;;
27303;SDS011;14791;52.392;13.092;2023-07-13T04:01:21;1.80;;;1.80;;
27303;SDS011;14791;52.392;13.092;2023-07-13T04:03:53;1.80;;;1.70;;
27303;SDS011;14791;52.392;13.092;2023-07-13T04:06:26;1.75;;;1.60;;
27303;SDS011;14791;52.392;13.092;2023-07-13T04:08:57;2.20;;;2.10;;
27303;SDS011;14791;52.392;13.092;2023-07-13T04:11:28;2.02;;;1.92;;
27303;SDS011;14791;52.392;13.092;2023-07-13T04:13:59;2.40;;;2.20;;
27303;SDS011;14791;52.392;13.092;2023-07-13T04:16:29;1.90;;;1.80;;
27303;SDS011;14791;52.392;13.092;2023-07-13T04:18:58;1.60;;;1.55;;
27303;SDS011;14791;52.392;13.092;2023-07-13T04:21:27;1.40;;;1.40;;
27303;SDS011;14791;52.392;13.092;2023-07-13T04:23:58;1.62;;;1.62;;
27303;SDS011;14791;52.392;13.092;2023-07-13T04:26:27;2.08;;;1.98;;
27303;SDS011;14791;52.392;13.092;2023-07-13T04:28:56;1.70;;;1.60;;
27303;SDS011;14791;52.392;13.092;2023-07-13T04:31:25;1.60;;;1.60;;
27303;SDS011;14791;52.392;13.092;2023-07-13T04:33:55;1.62;;;1.62;;
27303;SDS011;14791;52.392;13.092;2023-07-13T04:36:24;1.45;;;1.45;;
27303;SDS011;14791;52.392;13.092;2023-07-13T04:38:56;1.42;;;1.42;;
27303;SDS011;14791;52.392;13.092;2023-07-13T04:41:25;1.67;;;1.55;;
27303;SDS011;14791;52.392;13.092;2023-07-13T04:43:55;1.50;;;1.50;;
27303;SDS011;14791;52.392;13.092;2023-07-13T04:46:24;1.27;;;1.27;;
27303;SDS011;14791;52.392;13.092;2023-07-13T04:48:52;1.32;;;1.32;;
27303;SDS011;14791;52.392;13.092;2023-07-13T04:51:21;1.52;;;1.52;;
27303;SDS011;14791;52.392;13.092;2023-07-13T04:53:50;1.65;;;1.55;;
27303;SDS011;14791;52.392;13.092;2023-07-13T04:56:19;1.85;;;1.75;;
27303;SDS011;14791;52.392;13.092;2023-07-13T04:58:48;1.60;;;1.60;;
27303;SDS011;14791;52.392;13.092;2023-07-13T05:01:17;1.47;;;1.47;;
27303;SDS011;14791;52.392;13.092;2023-07-13T05:03:47;1.70;;;1.60;;
27303;SDS011;14791;52.392;13.092;2023-07-13T05:06:16;1.62;;;1.55;;
27303;SDS011;14791;52.392;13.092;2023-07-13T05:08:44;1.35;;;1.35;;
27303;SDS011;14791;52.392;13.092;2023-07-13T05:11:13;1.67;;;1.67;;
27303;SDS011;14791;52.392;13.092;2023-07-13T05:13:42;1.47;;;1.47;;
27303;SDS011;14791;52.392;13.092;2023-07-13T05:16:11;1.37;;;1.37;;
27303;SDS011;14791;52.392;13.092;2023-07-13T05:18:40;1.72;;;1.62;;
27303;SDS011;14791;52.392;13.092;2023-07-13T05:21:09;1.92;;;1.75;;
27303;SDS011;14791;52.392;13.092;2023-07-13T05:23:39;1.52;;;1.47;;
27303;SDS011;14791;52.392;13.092;2023-07-13T05:26:11;1.50;;;1.50;;
27303;SDS011;14791;52.392;13.092;2023-07-13T05:28:40;2.02;;;1.90;;
27303;SDS011;14791;52.392;13.092;2023-07-13T05:31:09;1.47;;;1.47;;
27303;SDS011;14791;52.392;13.092;2023-07-13T05:33:38;1.98;;;1.87;;
27303;SDS011;14791;52.392;13.092;2023-07-13T05:36:07;1.62;;;1.52;;
27303;SDS011;14791;52.392;13.092;2023-07-13T05:38:36;1.35;;;1.35;;
27303;SDS011;14791;52.392;13.092;2023-07-13T05:41:07;1.80;;;1.70;;
27303;SDS011;14791;52.392;13.092;2023-07-13T05:43:36;1.40;;;1.40;;
27303;SDS011;14791;52.392;13.092;2023-07-13T05:46:04;1.70;;;1.60;;
27303;SDS011;14791;52.392;13.092;2023-07-13T05:48:33;1.50;;;1.50;;
27303;SDS011;14791;52.392;13.092;2023-07-13T05:51:02;1.80;;;1.70;;
27303;SDS011;14791;52.392;13.092;2023-07-13T05:53:31;1.77;;;1.70;;
27303;SDS011;14791;52.392;13.092;2023-07-13T05:56:00;1.72;;;1.60;;
27303;SDS011;14791;52.392;13.092;2023-07-13T05:58:29;1.00;;;1.00;;
27303;SDS011;14791;52.392;13.092;2023-07-13T06:00:59;1.42;;;1.32;;
27303;SDS011;14791;52.392;13.092;2023-07-13T06:03:30;1.17;;;1.17;;
27303;SDS011;14791;52.392;13.092;2023-07-13T06:05:59;1.35;;;1.22;;
27303;SDS011;14791;52.392;13.092;2023-07-13T06:08:28;1.42;;;1.32;;
27303;SDS011;14791;52.392;13.092;2023-07-13T06:11:04;1.10;;;1.10;;
27303;SDS011;14791;52.392;13.092;2023-07-13T06:13:37;1.22;;;1.22;;
27303;SDS011;14791;52.392;13.092;2023-07-13T06:16:06;1.10;;;1.10;;
27303;SDS011;14791;52.392;13.092;2023-07-13T06:18:36;1.30;;;1.30;;
27303;SDS011;14791;52.392;13.092;2023-07-13T06:21:13;1.30;;;1.25;;
27303;SDS011;14791;52.392;13.092;2023-07-13T06:23:37;1.45;;;0.95;;
27303;SDS011;14791;52.392;13.092;2023-07-13T06:26:06;1.10;;;1.10;;
27303;SDS011;14791;52.392;13.092;2023-07-13T06:28:35;1.27;;;1.27;;
27303;SDS011;14791;52.392;13.092;2023-07-13T06:31:07;0.90;;;0.90;;
27303;SDS011;14791;52.392;13.092;2023-07-13T06:33:38;1.00;;;1.00;;
27303;SDS011;14791;52.392;13.092;2023-07-13T06:36:07;1.15;;;1.15;;
27303;SDS011;14791;52.392;13.092;2023-07-13T06:38:37;1.15;;;1.15;;
27303;SDS011;14791;52.392;13.092;2023-07-13T06:41:07;1.10;;;1.10;;
27303;SDS011;14791;52.392;13.092;2023-07-13T06:43:36;1.20;;;1.20;;
27303;SDS011;14791;52.392;13.092;2023-07-13T06:46:05;1.07;;;1.07;;
27303;SDS011;14791;52.392;13.092;2023-07-13T06:48:35;1.45;;;1.35;;
27303;SDS011;14791;52.392;13.092;2023-07-13T06:51:04;1.00;;;1.00;;
27303;SDS011;14791;52.392;13.092;2023-07-13T06:53:33;1.65;;;1.12;;
27303;SDS011;14791;52.392;13.092;2023-07-13T06:56:02;1.02;;;1.02;;
27303;SDS011;14791;52.392;13.092;2023-07-13T06:58:33;0.98;;;0.98;;
27303;SDS011;14791;52.392;13.092;2023-07-13T07:01:03;1.12;;;1.12;;
27303;SDS011;14791;52.392;13.092;2023-07-13T07:03:33;1.00;;;1.00;;
27303;SDS011;14791;52.392;13.092;2023-07-13T07:06:03;0.88;;;0.88;;
27303;SDS011;14791;52.392;13.092;2023-07-13T07:08:46;1.10;;;1.10;;
27303;SDS011;14791;52.392;13.092;2023-07-13T07:11:20;2.10;;;1.22;;
27303;SDS011;14791;52.392;13.092;2023-07-13T07:13:47;1.40;;;1.40;;
27303;SDS011;14791;52.392;13.092;2023-07-13T07:16:16;0.90;;;0.90;;
27303;SDS011;14791;52.392;13.092;2023-07-13T07:18:46;1.10;;;1.10;;
27303;SDS011;14791;52.392;13.092;2023-07-13T07:21:15;0.93;;;0.93;;
27303;SDS011;14791;52.392;13.092;2023-07-13T07:23:45;1.00;;;1.00;;
27303;SDS011;14791;52.392;13.092;2023-07-13T07:26:14;0.80;;;0.80;;
27303;SDS011;14791;52.392;13.092;2023-07-13T07:28:43;1.10;;;1.10;;
27303;SDS011;14791;52.392;13.092;2023-07-13T07:31:12;0.98;;;0.98;;
27303;SDS011;14791;52.392;13.092;2023-07-13T07:33:41;1.45;;;1.35;;
27303;SDS011;14791;52.392;13.092;2023-07-13T07:36:10;0.93;;;0.93;;
27303;SDS011;14791;52.392;13.092;2023-07-13T07:38:39;1.00;;;1.00;;
27303;SDS011;14791;52.392;13.092;2023-07-13T07:41:08;1.40;;;1.32;;
27303;SDS011;14791;52.392;13.092;2023-07-13T07:43:38;1.15;;;1.07;;
27303;SDS011;14791;52.392;13.092;2023-07-13T07:46:07;1.10;;;1.10;;
27303;SDS011;14791;52.392;13.092;2023-07-13T07:48:36;1.10;;;1.05;;
27303;SDS011;14791;52.392;13.092;2023-07-13T07:51:04;1.47;;;1.00;;
27303;SDS011;14791;52.392;13.092;2023-07-13T07:53:33;1.50;;;1.40;;
27303;SDS011;14791;52.392;13.092;2023-07-13T07:56:02;1.10;;;1.10;;
27303;SDS011;14791;52.392;13.092;2023-07-13T07:58:31;1.10;;;1.10;;
27303;SDS011;14791;52.392;13.092;2023-07-13T08:01:10;1.22;;;1.22;;
27303;SDS011;14791;52.392;13.092;2023-07-13T08:03:34;1.00;;;1.00;;
27303;SDS011;14791;52.392;13.092;2023-07-13T08:06:03;0.90;;;0.90;;
27303;SDS011;14791;52.392;13.092;2023-07-13T08:08:32;1.07;;;1.07;;
27303;SDS011;14791;52.392;13.092;2023-07-13T08:11:05;0.78;;;0.78;;
27303;SDS011;14791;52.392;13.092;2023-07-13T08:13:36;0.82;;;0.82;;
27303;SDS011;14791;52.392;13.092;2023-07-13T08:16:05;0.93;;;0.93;;
27303;SDS011;14791;52.392;13.092;2023-07-13T08:18:34;0.82;;;0.82;;
27303;SDS011;14791;52.392;13.092;2023-07-13T08:21:04;1.00;;;1.00;;
27303;SDS011;14791;52.392;13.092;2023-07-13T08:23:34;0.98;;;0.98;;
27303;SDS011;14791;52.392;13.092;2023-07-13T08:26:04;0.70;;;0.70;;
27303;SDS011;14791;52.392;13.092;2023-07-13T08:28:33;1.00;;;1.00;;
27303;SDS011;14791;52.392;13.092;2023-07-13T08:31:05;0.82;;;0.82;;
27303;SDS011;14791;52.392;13.092;2023-07-13T08:33:35;0.85;;;0.85;;
27303;SDS011;14791;52.392;13.092;2023-07-13T08:36:05;1.20;;;1.10;;
27303;SDS011;14791;52.392;13.092;2023-07-13T08:38:34;0.98;;;0.95;;
27303;SDS011;14791;52.392;13.092;2023-07-13T08:41:18;0.80;;;0.80;;
27303;SDS011;14791;52.392;13.092;2023-07-13T08:43:46;0.80;;;0.80;;
27303;SDS011;14791;52.392;13.092;2023-07-13T08:48:59;0.90;;;0.90;;
27303;SDS011;14791;52.392;13.092;2023-07-13T08:51:34;1.00;;;1.00;;
27303;SDS011;14791;52.392;13.092;2023-07-13T08:56:48;1.30;;;1.22;;
27303;SDS011;14791;52.392;13.092;2023-07-13T08:59:21;1.32;;;1.22;;
27303;SDS011;14791;52.392;13.092;2023-07-13T09:07:40;1.20;;;1.20;;
27303;SDS011;14791;52.392;13.092;2023-07-13T09:10:32;1.20;;;1.20;;
27303;SDS011;14791;52.392;13.092;2023-07-13T09:13:27;1.05;;;1.05;;
27303;SDS011;14791;52.392;13.092;2023-07-13T09:15:58;1.37;;;1.32;;
27303;SDS011;14791;52.392;13.092;2023-07-13T09:21:17;1.75;;;1.65;;
27303;SDS011;14791;52.392;13.092;2023-07-13T09:23:52;2.25;;;1.70;;
27303;SDS011;14791;52.392;13.092;2023-07-13T09:26:25;1.67;;;1.57;;
27303;SDS011;14791;52.392;13.092;2023-07-13T09:29:09;2.08;;;1.50;;
27303;SDS011;14791;52.392;13.092;2023-07-13T09:31:38;1.45;;;1.42;;
27303;SDS011;14791;52.392;13.092;2023-07-13T09:34:09;1.40;;;1.40;;
27303;SDS011;14791;52.392;13.092;2023-07-13T09:36:39;1.65;;;1.65;;
27303;SDS011;14791;52.392;13.092;2023-07-13T09:41:41;1.52;;;1.52;;
27303;SDS011;14791;52.392;13.092;2023-07-13T09:44:19;1.45;;;1.40;;
27303;SDS011;14791;52.392;13.092;2023-07-13T09:46:53;1.65;;;1.55;;
27303;SDS011;14791;52.392;13.092;2023-07-13T09:49:24;1.75;;;1.65;;
27303;SDS011;14791;52.392;13.092;2023-07-13T09:52:03;1.87;;;1.30;;
27303;SDS011;14791;52.392;13.092;2023-07-13T09:54:32;1.20;;;1.20;;
27303;SDS011;14791;52.392;13.092;2023-07-13T09:57:11;1.52;;;1.52;;
27303;SDS011;14791;52.392;13.092;2023-07-13T09:59:44;1.57;;;1.50;;
27303;SDS011;14791;52.392;13.092;2023-07-13T10:02:32;1.65;;;1.52;;
27303;SDS011;14791;52.392;13.092;2023-07-13T10:05:04;1.40;;;1.40;;
27303;SDS011;14791;52.392;13.092;2023-07-13T10:07:38;1.55;;;1.45;;
27303;SDS011;14791;52.392;13.092;2023-07-13T10:10:14;1.50;;;1.50;;
27303;SDS011;14791;52.392;13.092;2023-07-13T10:12:45;1.50;;;1.40;;
27303;SDS011;14791;52.392;13.092;2023-07-13T10:15:21;1.37;;;1.37;;
27303;SDS011;14791;52.392;13.092;2023-07-13T10:17:54;1.25;;;1.25;;
27303;SDS011;14791;52.392;13.092;2023-07-13T10:20:25;2.42;;;1.70;;
27303;SDS011;14791;52.392;13.092;2023-07-13T10:23:05;1.35;;;1.35;;
27303;SDS011;14791;52.392;13.092;2023-07-13T10:25:38;1.45;;;1.45;;
27303;SDS011;14791;52.392;13.092;2023-07-13T10:30:48;1.55;;;1.50;;
27303;SDS011;14791;52.392;13.092;2023-07-13T10:33:19;1.60;;;1.60;;
27303;SDS011;14791;52.392;13.092;2023-07-13T10:35:50;1.20;;;1.20;;
27303;SDS011;14791;52.392;13.092;2023-07-13T10:38:22;1.40;;;1.40;;
27303;SDS011;14791;52.392;13.092;2023-07-13T10:41:07;1.30;;;1.30;;
27303;SDS011;14791;52.392;13.092;2023-07-13T10:43:34;1.70;;;1.45;;
27303;SDS011;14791;52.392;13.092;2023-07-13T10:46:06;1.85;;;1.40;;
27303;SDS011;14791;52.392;13.092;2023-07-13T10:48:37;2.02;;;1.90;;
27303;SDS011;14791;52.392;13.092;2023-07-13T10:51:08;8.78;;;4.72;;
27303;SDS011;14791;52.392;13.092;2023-07-13T10:53:39;10.63;;;6.28;;
27303;SDS011;14791;52.392;13.092;2023-07-13T10:56:26;3.10;;;2.90;;
27303;SDS011;14791;52.392;13.092;2023-07-13T10:59:10;6.00;;;5.25;;
27303;SDS011;14791;52.392;13.092;2023-07-13T11:01:39;4.25;;;3.92;;
27303;SDS011;14791;52.392;13.092;2023-07-13T11:04:29;3.90;;;3.10;;
27303;SDS011;14791;52.392;13.092;2023-07-13T11:07:00;2.90;;;2.70;;
27303;SDS011;14791;52.392;13.092;2023-07-13T11:09:40;2.10;;;2.00;;
27303;SDS011;14791;52.392;13.092;2023-07-13T11:17:35;1.57;;;1.52;;
27303;SDS011;14791;52.392;13.092;2023-07-13T11:20:52;1.52;;;1.47;;
27303;SDS011;14791;52.392;13.092;2023-07-13T11:23:06;1.37;;;1.27;;
27303;SDS011;14791;52.392;13.092;2023-07-13T11:25:37;1.80;;;1.70;;
27303;SDS011;14791;52.392;13.092;2023-07-13T11:30:59;1.17;;;1.07;;
27303;SDS011;14791;52.392;13.092;2023-07-13T11:33:25;1.30;;;1.30;;
27303;SDS011;14791;52.392;13.092;2023-07-13T11:36:15;1.22;;;1.22;;
27303;SDS011;14791;52.392;13.092;2023-07-13T11:41:53;1.05;;;1.05;;
27303;SDS011;14791;52.392;13.092;2023-07-13T11:44:25;1.12;;;1.12;;
27303;SDS011;14791;52.392;13.092;2023-07-13T11:46:57;1.45;;;1.35;;
27303;SDS011;14791;52.392;13.092;2023-07-13T11:49:30;1.30;;;1.30;;
27303;SDS011;14791;52.392;13.092;2023-07-13T11:52:00;1.10;;;1.10;;
27303;SDS011;14791;52.392;13.092;2023-07-13T11:54:30;1.82;;;1.72;;
27303;SDS011;14791;52.392;13.092;2023-07-13T11:57:02;1.50;;;1.45;;
27303;SDS011;14791;52.392;13.092;2023-07-13T11:59:33;1.72;;;1.30;;
27303;SDS011;14791;52.392;13.092;2023-07-13T12:02:08;1.10;;;1.10;;
27303;SDS011;14791;52.392;13.092;2023-07-13T12:04:46;1.32;;;1.32;;
27303;SDS011;14791;52.392;13.092;2023-07-13T12:07:16;0.95;;;0.95;;
27303;SDS011;14791;52.392;13.092;2023-07-13T12:09:46;1.45;;;1.37;;
27303;SDS011;14791;52.392;13.092;2023-07-13T12:12:18;1.02;;;1.02;;
27303;SDS011;14791;52.392;13.092;2023-07-13T12:14:51;1.12;;;1.12;;
27303;SDS011;14791;52.392;13.092;2023-07-13T12:17:23;1.32;;;1.32;;
27303;SDS011;14791;52.392;13.092;2023-07-13T12:19:53;1.15;;;1.15;;
27303;SDS011;14791;52.392;13.092;2023-07-13T12:22:22;1.07;;;1.07;;
27303;SDS011;14791;52.392;13.092;2023-07-13T12:24:51;0.75;;;0.75;;
27303;SDS011;14791;52.392;13.092;2023-07-13T12:27:25;0.90;;;0.90;;
27303;SDS011;14791;52.392;13.092;2023-07-13T12:29:59;1.15;;;1.10;;
27303;SDS011;14791;52.392;13.092;2023-07-13T12:32:32;0.98;;;0.80;;
27303;SDS011;14791;52.392;13.092;2023-07-13T12:37:45;1.10;;;1.10;;
27303;SDS011;14791;52.392;13.092;2023-07-13T12:40:16;1.10;;;1.10;;
27303;SDS011;14791;52.392;13.092;2023-07-13T12:42:47;0.85;;;0.85;;
27303;SDS011;14791;52.392;13.092;2023-07-13T12:45:19;1.20;;;1.20;;
27303;SDS011;14791;52.392;13.092;2023-07-13T12:47:53;1.02;;;1.00;;
27303;SDS011;14791;52.392;13.092;2023-07-13T12:50:24;1.47;;;0.95;;
27303;SDS011;14791;52.392;13.092;2023-07-13T12:52:59;1.10;;;1.10;;
27303;SDS011;14791;52.392;13.092;2023-07-13T12:55:43;0.72;;;0.72;;
27303;SDS011;14791;52.392;13.092;2023-07-13T13:01:06;1.27;;;0.90;;
27303;SDS011;14791;52.392;13.092;2023-07-13T13:04:02;1.42;;;1.05;;
27303;SDS011;14791;52.392;13.092;2023-07-13T13:08:51;1.30;;;1.20;;
27303;SDS011;14791;52.392;13.092;2023-07-13T13:11:23;1.00;;;1.00;;
27303;SDS011;14791;52.392;13.092;2023-07-13T13:13:53;0.82;;;0.82;;
27303;SDS011;14791;52.392;13.092;2023-07-13T13:16:35;0.85;;;0.85;;
27303;SDS011;14791;52.392;13.092;2023-07-13T13:19:13;1.42;;;1.32;;
27303;SDS011;14791;52.392;13.092;2023-07-13T13:21:48;0.90;;;0.90;;
27303;SDS011;14791;52.392;13.092;2023-07-13T13:24:20;0.85;;;0.85;;
27303;SDS011;14791;52.392;13.092;2023-07-13T13:26:50;0.90;;;0.90;;
27303;SDS011;14791;52.392;13.092;2023-07-13T13:29:23;1.35;;;1.25;;
27303;SDS011;14791;52.392;13.092;2023-07-13T13:31:53;1.10;;;1.10;;
27303;SDS011;14791;52.392;13.092;2023-07-13T13:34:23;0.98;;;0.98;;
27303;SDS011;14791;52.392;13.092;2023-07-13T13:36:53;0.80;;;0.80;;
27303;SDS011;14791;52.392;13.092;2023-07-13T13:39:24;1.67;;;1.10;;
27303;SDS011;14791;52.392;13.092;2023-07-13T13:41:55;1.00;;;1.00;;
27303;SDS011;14791;52.392;13.092;2023-07-13T13:44:24;2.00;;;0.85;;
27303;SDS011;14791;52.392;13.092;2023-07-13T13:46:53;1.07;;;1.07;;
27303;SDS011;14791;52.392;13.092;2023-07-13T13:49:26;1.37;;;1.00;;
27303;SDS011;14791;52.392;13.092;2023-07-13T13:51:56;3.08;;;1.10;;
27303;SDS011;14791;52.392;13.092;2023-07-13T13:54:26;0.90;;;0.90;;
27303;SDS011;14791;52.392;13.092;2023-07-13T13:56:55;0.70;;;0.70;;
27303;SDS011;14791;52.392;13.092;2023-07-13T13:59:25;0.95;;;0.95;;
27303;SDS011;14791;52.392;13.092;2023-07-13T14:01:54;0.95;;;0.95;;
27303;SDS011;14791;52.392;13.092;2023-07-13T14:04:25;0.80;;;0.80;;
27303;SDS011;14791;52.392;13.092;2023-07-13T14:06:54;0.90;;;0.90;;
27303;SDS011;14791;52.392;13.092;2023-07-13T14:09:23;1.72;;;1.30;;
27303;SDS011;14791;52.392;13.092;2023-07-13T14:11:51;1.42;;;0.65;;
27303;SDS011;14791;52.392;13.092;2023-07-13T14:14:22;0.98;;;0.98;;
27303;SDS011;14791;52.392;13.092;2023-07-13T14:16:54;1.05;;;0.93;;
27303;SDS011;14791;52.392;13.092;2023-07-13T14:19:24;1.90;;;1.10;;
27303;SDS011;14791;52.392;13.092;2023-07-13T14:21:54;1.27;;;1.00;;
27303;SDS011;14791;52.392;13.092;2023-07-13T14:24:23;0.98;;;0.98;;
27303;SDS011;14791;52.392;13.092;2023-07-13T14:26:52;0.85;;;0.85;;
27303;SDS011;14791;52.392;13.092;2023-07-13T14:29:21;1.50;;;1.00;;
27303;SDS011;14791;52.392;13.092;2023-07-13T14:31:52;0.68;;;0.68;;
27303;SDS011;14791;52.392;13.092;2023-07-13T14:34:21;1.00;;;0.70;;
27303;SDS011;14791;52.392;13.092;2023-07-13T14:36:50;0.80;;;0.80;;
27303;SDS011;14791;52.392;13.092;2023-07-13T14:39:23;1.02;;;0.72;;
27303;SDS011;14791;52.392;13.092;2023-07-13T14:41:54;0.50;;;0.50;;
27303;SDS011;14791;52.392;13.092;2023-07-13T14:44:25;0.60;;;0.60;;
27303;SDS011;14791;52.392;13.092;2023-07-13T14:46:59;0.60;;;0.60;;
27303;SDS011;14791;52.392;13.092;2023-07-13T14:49:32;0.70;;;0.70;;
27303;SDS011;14791;52.392;13.092;2023-07-13T14:52:13;0.70;;;0.70;;
27303;SDS011;14791;52.392;13.092;2023-07-13T14:54:45;1.00;;;1.00;;
27303;SDS011;14791;52.392;13.092;2023-07-13T14:57:17;0.70;;;0.70;;
27303;SDS011;14791;52.392;13.092;2023-07-13T14:59:47;0.78;;;0.78;;
27303;SDS011;14791;52.392;13.092;2023-07-13T15:02:27;0.60;;;0.60;;
27303;SDS011;14791;52.392;13.092;2023-07-13T15:04:56;0.60;;;0.60;;
27303;SDS011;14791;52.392;13.092;2023-07-13T15:07:26;0.75;;;0.75;;
27303;SDS011;14791;52.392;13.092;2023-07-13T15:09:55;0.68;;;0.57;;
27303;SDS011;14791;52.392;13.092;2023-07-13T15:12:24;1.02;;;0.80;;
27303;SDS011;14791;52.392;13.092;2023-07-13T15:14:53;1.42;;;0.95;;
27303;SDS011;14791;52.392;13.092;2023-07-13T15:17:28;1.07;;;0.68;;
27303;SDS011;14791;52.392;13.092;2023-07-13T15:20:15;0.80;;;0.80;;
27303;SDS011;14791;52.392;13.092;2023-07-13T15:22:38;0.60;;;0.60;;
27303;SDS011;14791;52.392;13.092;2023-07-13T15:25:11;0.78;;;0.72;;
27303;SDS011;14791;52.392;13.092;2023-07-13T15:27:51;0.72;;;0.72;;
27303;SDS011;14791;52.392;13.092;2023-07-13T15:30:21;0.50;;;0.50;;
27303;SDS011;14791;52.392;13.092;2023-07-13T15:32:51;0.80;;;0.80;;
27303;SDS011;14791;52.392;13.092;2023-07-13T15:35:21;1.35;;;1.25;;